Time;durP1;ratioP1;P1;durP2;ratioP2;P2;SDS_P1;SDS_P2;PMS_P1;PMS_P2;Temp;Humidity;BMP_temperature;BMP_pressure;BME280_temperature;BME280_humidity;BME280_pressure;Samples;Min_cycle;Max_cycle;Signal;HPM_P1;HPM_P2
2021/04/22 00:00:05;;;;;;;28.70;4.67;;;;;;;9.37;48.36;101319.53;5158409;27;20943;-49
2021/04/22 00:02:32;;;;;;;21.27;3.63;;;;;;;9.64;47.95;101319.31;5159075;27;20464;-51
2021/04/22 00:04:58;;;;;;;16.70;3.80;;;;;;;9.61;48.15;101320.03;5158312;27;20495;-49
2021/04/22 00:07:25;;;;;;;21.17;4.77;;;;;;;9.57;47.97;101318.97;5159436;27;20430;-48
2021/04/22 00:09:51;;;;;;;16.23;3.47;;;;;;;9.77;47.76;101318.28;5137136;27;20910;-48
2021/04/22 00:12:18;;;;;;;20.43;4.23;;;;;;;9.75;47.67;101318.22;5137693;27;20476;-51
2021/04/22 00:14:46;;;;;;;15.93;4.73;;;;;;;9.88;47.28;101336.91;5136673;27;20460;-50
2021/04/22 00:17:12;;;;;;;31.67;5.20;;;;;;;9.48;48.08;101336.50;5138136;27;20483;-48
2021/04/22 00:19:39;;;;;;;17.23;3.60;;;;;;;9.31;48.44;101325.25;5134533;27;20475;-49
2021/04/22 00:22:06;;;;;;;17.20;3.70;;;;;;;9.50;48.36;101331.44;5136385;27;20484;-49
2021/04/22 00:24:32;;;;;;;20.63;3.70;;;;;;;9.32;48.33;101340.78;5137989;27;20551;-48
2021/04/22 00:26:59;;;;;;;23.67;5.40;;;;;;;9.27;48.24;101328.44;5134548;27;20740;-48
2021/04/22 00:29:26;;;;;;;21.43;3.90;;;;;;;9.28;48.39;101333.69;5137977;27;20458;-49
2021/04/22 00:31:53;;;;;;;18.67;3.63;;;;;;;9.47;47.78;101327.00;5136189;27;20472;-49
2021/04/22 00:34:20;;;;;;;19.07;4.03;;;;;;;9.44;48.23;101329.41;5134860;27;20464;-49
2021/04/22 00:36:46;;;;;;;23.00;3.97;;;;;;;9.41;47.96;101332.69;5136459;27;20534;-52
2021/04/22 00:39:13;;;;;;;19.97;3.10;;;;;;;9.47;47.72;101336.44;5138008;27;20738;-50
2021/04/22 00:41:39;;;;;;;19.60;3.63;;;;;;;9.31;47.84;101346.75;5135473;27;20476;-49
2021/04/22 00:44:08;;;;;;;11.63;3.17;;;;;;;9.22;47.76;101342.78;5137308;27;20784;-50
2021/04/22 00:46:36;;;;;;;21.20;3.33;;;;;;;9.42;47.53;101338.72;5136170;27;20447;-49
2021/04/22 00:49:04;;;;;;;17.67;4.43;;;;;;;9.36;47.74;101335.81;5137393;27;20472;-49
2021/04/22 00:51:31;;;;;;;23.57;3.70;;;;;;;9.18;48.21;101344.28;5135894;27;20555;-50
2021/04/22 00:53:58;;;;;;;11.57;3.17;;;;;;;9.36;47.87;101338.38;5136977;27;20776;-48
2021/04/22 00:56:25;;;;;;;17.30;3.20;;;;;;;9.48;47.91;101333.91;5136606;27;20443;-49
2021/04/22 00:58:51;;;;;;;14.00;3.47;;;;;;;9.19;48.22;101339.22;5136330;27;20536;-52
2021/04/22 01:01:18;;;;;;;20.03;5.23;;;;;;;9.19;47.97;101336.63;5132797;27;20447;-50
2021/04/22 01:03:45;;;;;;;9.67;2.53;;;;;;;9.10;48.07;101340.38;5136044;27;20934;-49
2021/04/22 01:06:12;;;;;;;28.73;4.43;;;;;;;9.34;47.60;101329.69;5134642;27;20587;-50
2021/04/22 01:08:39;;;;;;;23.40;3.97;;;;;;;9.51;46.88;101344.41;5135986;27;20784;-49
2021/04/22 01:11:07;;;;;;;20.07;3.73;;;;;;;9.49;46.93;101343.41;5134889;27;20763;-50
2021/04/22 01:13:33;;;;;;;28.13;4.20;;;;;;;9.51;46.96;101348.66;5135961;27;20760;-49
2021/04/22 01:16:00;;;;;;;22.77;4.53;;;;;;;9.31;47.24;101344.19;5134711;27;20482;-49
2021/04/22 01:18:27;;;;;;;25.27;3.70;;;;;;;9.31;47.13;101340.72;5135791;27;20452;-46
2021/04/22 01:20:54;;;;;;;24.10;4.17;;;;;;;9.49;47.05;101335.69;5136542;27;20495;-46
2021/04/22 01:23:21;;;;;;;30.47;3.50;;;;;;;9.40;47.45;101336.09;5136942;27;20475;-48
2021/04/22 01:25:50;;;;;;;18.63;3.53;;;;;;;9.36;46.93;101338.38;5134855;27;20465;-51
2021/04/22 01:28:18;;;;;;;29.23;4.03;;;;;;;9.44;46.62;101339.72;5135690;27;20938;-50
2021/04/22 01:30:47;;;;;;;23.87;3.00;;;;;;;9.32;46.60;101338.22;5134751;27;20478;-50
2021/04/22 01:33:15;;;;;;;19.60;3.30;;;;;;;9.28;46.81;101333.69;5135534;27;20450;-46
2021/04/22 01:35:44;;;;;;;19.43;4.20;;;;;;;9.14;46.96;101335.47;5134700;27;20474;-49
2021/04/22 01:38:12;;;;;;;19.97;3.83;;;;;;;9.45;46.58;101334.63;5136289;27;20451;-46
2021/04/22 01:40:40;;;;;;;16.63;3.23;;;;;;;9.49;46.52;101335.69;5134597;27;20480;-46
2021/04/22 01:43:07;;;;;;;16.63;3.23;;;;;;;9.42;46.66;101334.47;5135847;27;20567;-47
2021/04/22 01:45:34;;;;;;;21.00;3.10;;;;;;;9.65;46.50;101332.25;5134566;27;20451;-45
2021/04/22 01:48:02;;;;;;;16.13;3.40;;;;;;;9.38;46.62;101352.25;5136117;27;20760;-47
2021/04/22 01:50:30;;;;;;;14.27;3.70;;;;;;;9.61;46.24;101342.31;5134864;27;20447;-47
2021/04/22 01:52:58;;;;;;;21.83;4.77;;;;;;;9.71;45.80;101339.47;5135898;27;20764;-46
2021/04/22 01:55:29;;;;;;;19.20;4.10;;;;;;;9.41;46.17;101353.31;5135154;27;20472;-48
2021/04/22 01:57:57;;;;;;;17.30;2.80;;;;;;;9.44;46.34;101339.72;5133935;27;20530;-51
2021/04/22 02:00:27;;;;;;;20.97;4.10;;;;;;;9.44;46.28;101343.16;5135138;27;20454;-48
2021/04/22 02:02:54;;;;;;;12.33;2.80;;;;;;;9.86;45.74;101341.97;5136521;27;20451;-49
2021/04/22 02:05:21;;;;;;;17.40;4.23;;;;;;;9.74;46.08;101337.03;5135495;27;20476;-49
2021/04/22 02:07:47;;;;;;;17.73;3.23;;;;;;;9.56;46.25;101342.97;5136422;27;20429;-49
2021/04/22 02:10:14;;;;;;;23.87;4.30;;;;;;;9.90;45.84;101340.47;5135423;27;20857;-54
2021/04/22 02:12:41;;;;;;;21.13;3.27;;;;;;;9.65;46.30;101341.69;5136360;27;20518;-49
2021/04/22 02:15:11;;;;;;;15.93;3.60;;;;;;;9.68;46.00;101339.28;5135207;27;20446;-49
2021/04/22 02:17:38;;;;;;;25.03;3.63;;;;;;;9.49;46.26;101343.41;5136440;27;20879;-49
2021/04/22 02:20:07;;;;;;;17.13;3.93;;;;;;;10.02;45.57;101337.63;5134895;27;20469;-48
2021/04/22 02:22:33;;;;;;;16.73;3.60;;;;;;;9.86;45.64;101342.84;5136156;27;20479;-49
2021/04/22 02:25:00;;;;;;;20.97;5.17;;;;;;;10.05;45.45;101343.84;5135459;27;20464;-51
2021/04/22 02:27:26;;;;;;;20.40;3.03;;;;;;;10.11;45.16;101333.84;5135983;28;20903;-49
2021/04/22 02:29:53;;;;;;;22.93;3.10;;;;;;;9.76;45.54;101334.53;5135514;27;20541;-51
2021/04/22 02:32:20;;;;;;;18.03;3.10;;;;;;;9.89;45.33;101336.09;5135893;27;20529;-49
2021/04/22 02:34:47;;;;;;;13.70;3.63;;;;;;;10.05;44.47;101330.94;5134842;27;20452;-49
2021/04/22 02:37:14;;;;;;;25.13;3.27;;;;;;;10.00;44.31;101332.38;5136487;28;20816;-49
2021/04/22 02:39:40;;;;;;;23.47;4.20;;;;;;;9.69;44.55;101336.78;5135017;27;20871;-49
2021/04/22 02:42:07;;;;;;;12.30;2.93;;;;;;;9.92;44.30;101336.25;5135981;27;20487;-52
2021/04/22 02:44:39;;;;;;;21.80;3.70;;;;;;;9.78;44.25;101338.97;5135162;27;20878;-49
2021/04/22 02:47:05;;;;;;;16.23;3.00;;;;;;;10.04;44.13;101336.06;5140331;27;20574;-49
2021/04/22 02:49:33;;;;;;;12.93;3.43;;;;;;;9.93;44.89;101332.88;5140273;27;20544;-48
2021/04/22 02:52:00;;;;;;;19.50;3.40;;;;;;;10.15;43.78;101339.19;5139658;27;20441;-48
2021/04/22 02:54:26;;;;;;;13.23;3.27;;;;;;;9.81;44.29;101346.91;5140232;27;20437;-48
2021/04/22 02:56:53;;;;;;;6.27;2.37;;;;;;;10.13;43.50;101329.69;5139000;27;20763;-48
2021/04/22 02:59:19;;;;;;;15.77;3.17;;;;;;;10.04;43.63;101347.22;5140268;27;20448;-49
2021/04/22 03:01:46;;;;;;;33.83;3.60;;;;;;;9.83;44.14;101345.28;5140849;27;20468;-48
2021/04/22 03:04:12;;;;;;;17.97;3.80;;;;;;;10.17;43.72;101340.16;5140082;27;20452;-48
2021/04/22 03:06:40;;;;;;;19.00;3.30;;;;;;;10.04;44.01;101344.66;5139048;27;20818;-50
2021/04/22 03:09:07;;;;;;;8.80;1.80;;;;;;;9.80;44.61;101346.81;5140164;27;20476;-50
2021/04/22 03:11:34;;;;;;;18.90;3.13;;;;;;;9.97;44.64;101351.19;5138695;27;20929;-50
2021/04/22 03:14:01;;;;;;;24.10;3.30;;;;;;;10.31;44.13;101335.72;5140005;27;20528;-49
2021/04/22 03:16:28;;;;;;;24.20;3.70;;;;;;;10.24;44.14;101337.06;5138344;27;20919;-49
2021/04/22 03:18:54;;;;;;;12.50;2.60;;;;;;;10.20;44.55;101340.31;5140107;27;20452;-49
2021/04/22 03:21:21;;;;;;;17.20;3.10;;;;;;;10.28;44.36;101339.03;5138694;27;20476;-49
2021/04/22 03:23:49;;;;;;;15.70;3.13;;;;;;;10.17;44.81;101342.72;5142362;27;20501;-49
2021/04/22 03:26:15;;;;;;;19.80;3.93;;;;;;;10.56;44.29;101332.72;5139025;27;20454;-48
2021/04/22 03:28:42;;;;;;;14.33;3.37;;;;;;;10.38;44.40;101336.13;5139474;27;20454;-50
2021/04/22 03:31:09;;;;;;;15.67;3.60;;;;;;;10.16;44.80;101335.81;5138665;27;20480;-47
2021/04/22 03:33:35;;;;;;;21.53;3.93;;;;;;;10.09;44.96;101345.78;5139566;27;20472;-49
2021/04/22 03:36:02;;;;;;;21.80;3.60;;;;;;;10.49;44.38;101351.28;5138631;27;20453;-48
2021/04/22 03:38:29;;;;;;;22.93;3.10;;;;;;;10.33;44.43;101353.06;5139480;27;20444;-46
2021/04/22 03:40:56;;;;;;;19.10;2.87;;;;;;;10.24;44.60;101355.13;5138532;27;20478;-47
2021/04/22 03:43:23;;;;;;;16.53;3.47;;;;;;;10.39;44.65;101350.78;5139127;27;20442;-49
2021/04/22 03:45:49;;;;;;;12.40;2.77;;;;;;;10.47;44.31;101358.06;5138437;27;20799;-48
2021/04/22 03:48:16;;;;;;;16.93;2.60;;;;;;;10.78;43.86;101350.19;5139094;27;20482;-48
2021/04/22 03:50:43;;;;;;;16.90;3.17;;;;;;;10.62;43.96;101351.09;5138475;27;20542;-48
2021/04/22 03:53:10;;;;;;;10.30;2.60;;;;;;;10.77;43.95;101352.72;5138921;27;20472;-48
2021/04/22 03:55:36;;;;;;;12.20;2.30;;;;;;;10.45;44.62;101360.56;5138388;27;20555;-48
2021/04/22 03:58:04;;;;;;;15.60;3.53;;;;;;;10.59;45.09;101353.53;5139051;27;20431;-51
2021/04/22 04:00:30;;;;;;;15.43;3.17;;;;;;;10.50;45.15;101361.69;5138137;27;20459;-50
2021/04/22 04:02:57;;;;;;;18.67;2.87;;;;;;;10.35;46.05;101361.75;5138878;27;20770;-49
2021/04/22 04:05:24;;;;;;;11.73;3.10;;;;;;;10.46;45.97;101362.34;5137707;27;20470;-50
2021/04/22 04:07:53;;;;;;;19.27;4.10;;;;;;;10.47;46.71;101363.22;5139005;27;20547;-48
2021/04/22 04:10:20;;;;;;;24.17;3.53;;;;;;;10.32;47.46;101359.03;5137464;27;20750;-50
2021/04/22 04:12:46;;;;;;;13.63;2.63;;;;;;;10.41;47.09;101358.59;5138295;27;20457;-47
2021/04/22 04:15:15;;;;;;;22.97;3.70;;;;;;;10.82;46.33;101360.69;5137564;27;20451;-50
2021/04/22 04:17:41;;;;;;;19.20;3.10;;;;;;;10.43;47.20;101369.03;5138956;27;20720;-48
2021/04/22 04:20:10;;;;;;;21.60;3.37;;;;;;;10.08;48.08;101368.91;5137213;27;20511;-50
2021/04/22 04:22:37;;;;;;;21.27;4.07;;;;;;;10.19;48.16;101372.03;5138273;27;20443;-48
2021/04/22 04:25:05;;;;;;;24.27;3.33;;;;;;;10.50;47.30;101378.84;5137385;27;20785;-48
2021/04/22 04:27:32;;;;;;;27.30;3.67;;;;;;;10.37;47.58;101378.19;5138744;27;20513;-48
2021/04/22 04:29:58;;;;;;;13.97;3.50;;;;;;;10.77;46.92;101369.06;5137205;27;20451;-49
2021/04/22 04:32:26;;;;;;;21.00;3.00;;;;;;;10.45;47.76;101388.06;5138155;27;20447;-48
2021/04/22 04:34:53;;;;;;;20.97;3.43;;;;;;;10.53;47.36;101379.03;5137116;27;20434;-48
2021/04/22 04:37:19;;;;;;;9.33;2.40;;;;;;;10.64;47.43;101387.31;5138287;27;20459;-48
2021/04/22 04:39:46;;;;;;;24.57;5.57;;;;;;;10.64;47.22;101388.22;5136974;27;20462;-48
2021/04/22 04:42:12;;;;;;;21.40;4.30;;;;;;;10.96;47.23;101385.47;5137893;27;20462;-48
2021/04/22 04:44:39;;;;;;;15.93;3.50;;;;;;;10.51;47.88;101386.69;5136831;27;20463;-48
2021/04/22 04:47:06;;;;;;;25.97;4.37;;;;;;;10.76;47.66;101381.88;5137936;27;20943;-49
2021/04/22 04:49:33;;;;;;;28.40;4.27;;;;;;;10.63;47.72;101390.72;5138013;27;20458;-48
2021/04/22 04:52:00;;;;;;;14.90;4.70;;;;;;;10.56;48.34;101398.94;5137345;27;20431;-49
2021/04/22 04:54:26;;;;;;;18.37;4.30;;;;;;;10.64;48.46;101403.69;5137701;27;20427;-49
2021/04/22 04:56:53;;;;;;;19.60;3.43;;;;;;;10.53;48.93;101395.38;5136430;27;20559;-48
2021/04/22 04:59:20;;;;;;;20.20;3.43;;;;;;;10.61;48.62;101398.38;5137890;27;20434;-49
2021/04/22 05:01:46;;;;;;;29.63;5.13;;;;;;;10.29;49.19;101410.44;5138691;27;20981;-49
2021/04/22 05:04:13;;;;;;;18.63;3.40;;;;;;;10.32;49.52;101413.19;5158504;27;20455;-51
2021/04/22 05:06:41;;;;;;;15.43;3.87;;;;;;;10.63;48.75;101406.19;5156978;27;20540;-51
2021/04/22 05:09:08;;;;;;;32.47;4.60;;;;;;;10.57;48.82;101406.78;5157853;27;20930;-49
2021/04/22 05:11:34;;;;;;;25.90;3.87;;;;;;;10.65;48.21;101413.22;5157066;27;20825;-48
2021/04/22 05:14:01;;;;;;;32.67;3.50;;;;;;;11.03;47.77;101405.63;5158366;27;20558;-51
2021/04/22 05:16:27;;;;;;;16.13;2.80;;;;;;;10.74;47.99;101417.06;5157190;27;20735;-49
2021/04/22 05:18:54;;;;;;;25.27;4.93;;;;;;;10.90;47.11;101414.47;5158103;27;20451;-50
2021/04/22 05:21:21;;;;;;;11.73;2.63;;;;;;;10.62;47.47;101420.78;5156788;27;20453;-48
2021/04/22 05:23:48;;;;;;;25.20;6.27;;;;;;;11.12;46.75;101420.72;5157868;27;20446;-47
2021/04/22 05:26:15;;;;;;;17.43;3.30;;;;;;;11.19;46.16;101420.19;5153137;27;20480;-47
2021/04/22 05:28:41;;;;;;;19.13;3.10;;;;;;;10.83;46.74;101427.88;5157971;27;20479;-49
2021/04/22 05:31:09;;;;;;;20.37;4.10;;;;;;;10.83;46.68;101425.28;5156611;27;20450;-47
2021/04/22 05:33:35;;;;;;;11.50;3.17;;;;;;;10.96;46.20;101431.09;5157835;27;20478;-46
2021/04/22 05:36:03;;;;;;;17.00;3.20;;;;;;;10.87;46.65;101427.22;5156231;27;20911;-50
2021/04/22 05:38:30;;;;;;;18.30;3.87;;;;;;;10.71;47.43;101429.81;5158062;27;20429;-48
2021/04/22 05:40:57;;;;;;;17.83;3.03;;;;;;;10.51;47.50;101438.28;5156469;27;20551;-48
2021/04/22 05:43:24;;;;;;;12.90;3.43;;;;;;;10.61;48.29;101424.16;5157632;27;20794;-47
2021/04/22 05:45:50;;;;;;;12.67;3.40;;;;;;;10.50;48.04;101443.34;5156204;27;20501;-48
2021/04/22 05:48:17;;;;;;;15.40;3.07;;;;;;;10.72;47.71;101447.09;5157468;27;20451;-48
2021/04/22 05:50:44;;;;;;;12.93;2.93;;;;;;;11.00;47.13;101453.66;5154603;27;20550;-49
2021/04/22 05:53:10;;;;;;;16.10;3.80;;;;;;;10.75;47.45;101447.22;5157193;27;20821;-49
2021/04/22 05:55:37;;;;;;;21.43;2.77;;;;;;;11.00;45.12;101449.38;5155965;27;20554;-49
2021/04/22 05:58:04;;;;;;;16.90;3.80;;;;;;;10.78;46.05;101456.00;5157453;27;20455;-49
2021/04/22 06:00:31;;;;;;;25.20;4.10;;;;;;;11.11;45.55;101449.94;5155791;27;20449;-52
2021/04/22 06:02:58;;;;;;;15.53;3.40;;;;;;;10.88;46.18;101454.78;5157004;27;20557;-52
2021/04/22 06:05:25;;;;;;;13.60;3.10;;;;;;;11.03;46.44;101452.13;5155870;27;20483;-50
2021/04/22 06:07:51;;;;;;;18.07;3.23;;;;;;;10.61;46.69;101447.41;5157584;27;20463;-48
2021/04/22 06:10:18;;;;;;;17.77;3.33;;;;;;;11.05;46.11;101458.28;5155967;27;20479;-49
2021/04/22 06:12:45;;;;;;;27.93;4.30;;;;;;;11.02;46.46;101457.22;5156895;27;20482;-48
2021/04/22 06:15:14;;;;;;;10.70;2.20;;;;;;;10.70;47.06;101456.41;5155885;27;20541;-49
2021/04/22 06:17:41;;;;;;;27.77;4.20;;;;;;;11.11;46.70;101457.69;5157306;27;20432;-50
2021/04/22 06:20:09;;;;;;;17.40;3.47;;;;;;;11.15;46.51;101458.72;5155384;27;20450;-48
2021/04/22 06:22:36;;;;;;;16.40;3.53;;;;;;;11.07;46.73;101471.22;5156924;27;20468;-49
2021/04/22 06:25:04;;;;;;;15.17;3.67;;;;;;;11.01;47.14;101460.59;5155893;27;20449;-48
2021/04/22 06:27:30;;;;;;;18.50;3.73;;;;;;;11.07;46.77;101466.06;5157333;27;20538;-48
2021/04/22 06:29:57;;;;;;;17.30;3.70;;;;;;;11.03;47.18;101469.31;5155773;27;20482;-49
2021/04/22 06:32:24;;;;;;;22.80;4.60;;;;;;;10.99;46.97;101472.53;5156625;27;20562;-50
2021/04/22 06:34:51;;;;;;;16.57;3.70;;;;;;;11.41;46.24;101472.94;5156017;27;20893;-51
2021/04/22 06:37:18;;;;;;;17.03;4.37;;;;;;;11.10;47.19;101476.56;5157122;27;20462;-46
2021/04/22 06:39:44;;;;;;;14.33;3.53;;;;;;;11.21;47.19;101484.84;5155926;27;20429;-46
2021/04/22 06:42:11;;;;;;;19.10;4.47;;;;;;;11.28;46.92;101470.56;5156549;27;20766;-48
2021/04/22 06:44:38;;;;;;;13.67;2.73;;;;;;;10.51;48.66;101500.22;5156075;27;20426;-49
2021/04/22 06:47:04;;;;;;;24.43;3.50;;;;;;;11.11;47.46;101492.94;5156819;27;20539;-49
2021/04/22 06:49:32;;;;;;;18.00;3.57;;;;;;;11.81;45.79;101494.72;5157247;27;20458;-46
2021/04/22 06:51:59;;;;;;;15.87;3.03;;;;;;;11.73;46.06;101493.41;5156252;27;20832;-47
2021/04/22 06:54:26;;;;;;;22.80;3.40;;;;;;;11.81;45.86;101492.13;5156717;27;20455;-48
2021/04/22 06:56:52;;;;;;;18.03;3.50;;;;;;;11.46;46.69;101505.09;5155382;27;20826;-46
2021/04/22 06:59:19;;;;;;;22.73;3.47;;;;;;;11.43;45.85;101486.81;5156774;27;20469;-48
2021/04/22 07:01:50;;;;;;;17.03;3.57;;;;;;;11.33;45.63;101484.56;5155064;27;20919;-47
2021/04/22 07:04:17;;;;;;;19.40;3.57;;;;;;;11.49;45.26;101506.94;5156876;27;20437;-47
2021/04/22 07:06:45;;;;;;;26.60;2.90;;;;;;;11.29;45.33;101498.16;5155280;27;20562;-47
2021/04/22 07:09:12;;;;;;;16.30;3.47;;;;;;;11.53;44.66;101505.38;5156784;27;20501;-48
2021/04/22 07:11:38;;;;;;;14.53;3.53;;;;;;;11.26;44.38;101508.34;5153782;27;20511;-47
2021/04/22 07:14:05;;;;;;;17.50;2.93;;;;;;;11.45;44.07;101511.03;5151843;27;20471;-49
2021/04/22 07:16:32;;;;;;;21.63;4.03;;;;;;;11.75;43.53;101510.78;5155342;27;20485;-46
2021/04/22 07:18:58;;;;;;;22.40;3.13;;;;;;;11.54;43.27;101504.56;5153209;27;20426;-49
2021/04/22 07:21:25;;;;;;;16.90;4.63;;;;;;;11.74;43.06;101506.44;5155209;27;20454;-48
2021/04/22 07:23:53;;;;;;;22.20;3.57;;;;;;;11.46;43.08;101507.66;5156307;27;20446;-50
2021/04/22 07:26:20;;;;;;;19.20;4.50;;;;;;;11.50;43.20;101510.38;5155207;27;20537;-47
2021/04/22 07:28:46;;;;;;;23.10;3.07;;;;;;;12.21;42.25;101526.78;5156192;27;20448;-50
2021/04/22 07:31:15;;;;;;;21.47;4.30;;;;;;;12.50;41.76;101516.00;5155855;27;20485;-47
2021/04/22 07:33:46;;;;;;;21.20;4.47;;;;;;;12.74;41.58;101523.13;5160225;27;20450;-46
2021/04/22 07:36:13;;;;;;;13.40;2.37;;;;;;;11.98;41.49;101511.03;5158984;27;20482;-50
2021/04/22 07:38:39;;;;;;;19.97;3.20;;;;;;;11.72;41.59;101526.16;5160078;27;20455;-48
2021/04/22 07:41:07;;;;;;;13.60;2.60;;;;;;;11.61;41.17;101522.16;5142932;27;20524;-48
2021/04/22 07:43:34;;;;;;;24.97;3.77;;;;;;;11.83;40.65;101526.69;5155611;27;20510;-51
2021/04/22 07:46:00;;;;;;;37.30;10.70;;;;;;;11.69;41.60;101520.81;5139022;27;20471;-47
2021/04/22 07:48:27;;;;;;;21.57;2.90;;;;;;;11.64;40.94;101548.13;5139300;27;20456;-50
2021/04/22 07:50:54;;;;;;;19.47;3.10;;;;;;;11.39;41.43;101540.84;5137539;27;20457;-47
2021/04/22 07:53:21;;;;;;;13.50;3.00;;;;;;;12.05;40.66;101532.91;5138644;27;20452;-47
2021/04/22 07:55:48;;;;;;;19.10;3.50;;;;;;;12.22;40.11;101538.91;5137733;27;20563;-50
2021/04/22 07:58:16;;;;;;;12.13;3.10;;;;;;;11.77;40.79;101541.00;5153402;27;20435;-49
2021/04/22 08:00:43;;;;;;;13.00;3.10;;;;;;;11.88;41.05;101542.41;5158335;27;20530;-47
2021/04/22 08:03:13;;;;;;;13.33;2.50;;;;;;;12.13;40.67;101551.41;5159225;27;20453;-47
2021/04/22 08:05:43;;;;;;;19.37;5.13;;;;;;;12.36;40.47;101546.44;5158317;27;20560;-49
2021/04/22 08:08:11;;;;;;;18.97;4.47;;;;;;;12.94;39.84;101547.34;5159490;27;20466;-47
2021/04/22 08:10:42;;;;;;;22.07;3.27;;;;;;;12.44;39.59;101547.69;5158038;27;20445;-52
2021/04/22 08:13:09;;;;;;;27.10;5.77;;;;;;;12.21;39.46;101557.81;5159182;27;20835;-48
2021/04/22 08:15:37;;;;;;;18.50;4.00;;;;;;;12.15;40.11;101562.69;5141458;27;20787;-47
2021/04/22 08:18:05;;;;;;;17.77;3.23;;;;;;;12.38;38.97;101558.63;5138820;27;20458;-50
2021/04/22 08:20:32;;;;;;;14.00;3.67;;;;;;;11.94;39.76;101565.13;5137200;27;20995;-48
2021/04/22 08:23:02;;;;;;;15.57;3.60;;;;;;;12.20;39.93;101571.56;5137904;27;20497;-46
2021/04/22 08:25:30;;;;;;;20.50;5.50;;;;;;;11.63;40.46;101561.88;5137123;27;20564;-47
2021/04/22 08:27:57;;;;;;;22.20;3.40;;;;;;;12.20;39.68;101570.69;5138240;27;20884;-47
2021/04/22 08:30:27;;;;;;;22.90;3.80;;;;;;;12.21;40.05;101550.06;5136892;27;20782;-48
2021/04/22 08:32:54;;;;;;;20.63;4.10;;;;;;;12.08;39.96;101571.88;5137648;27;20633;-47
2021/04/22 08:35:21;;;;;;;15.73;3.73;;;;;;;12.01;40.29;101570.63;5137213;27;20546;-47
2021/04/22 08:37:47;;;;;;;14.37;2.43;;;;;;;11.80;40.56;101582.53;5138364;27;20520;-47
2021/04/22 08:40:16;;;;;;;25.50;4.10;;;;;;;12.11;39.78;101572.00;5137007;27;20609;-47
2021/04/22 08:42:42;;;;;;;19.67;3.53;;;;;;;12.34;39.46;101571.34;5136900;27;20536;-47
2021/04/22 08:45:10;;;;;;;18.33;3.20;;;;;;;12.90;38.74;101579.09;5136676;27;20478;-48
2021/04/22 08:47:38;;;;;;;36.23;5.77;;;;;;;12.93;38.60;101571.47;5137986;27;20951;-47
2021/04/22 08:50:09;;;;;;;23.90;5.00;;;;;;;13.17;38.55;101565.59;5156406;27;20477;-48
2021/04/22 08:52:47;;;;;;;22.70;5.33;;;;;;;12.89;39.13;101572.13;5158169;27;20566;-47
2021/04/22 08:55:15;;;;;;;12.80;3.13;;;;;;;12.46;39.29;101584.84;5157035;27;20916;-49
2021/04/22 08:57:41;;;;;;;21.03;3.83;;;;;;;12.71;38.51;101575.66;5158405;27;20925;-47
2021/04/22 09:00:10;;;;;;;18.07;4.40;;;;;;;12.83;37.64;101580.53;5157039;27;20452;-47
2021/04/22 09:02:36;;;;;;;13.60;3.13;;;;;;;12.67;37.93;101586.69;5157848;27;20477;-47
2021/04/22 09:05:04;;;;;;;27.13;4.17;;;;;;;13.29;37.01;101593.75;5156823;27;20479;-46
2021/04/22 09:07:31;;;;;;;18.00;3.87;;;;;;;12.84;38.18;101577.13;5158477;27;20457;-47
2021/04/22 09:10:00;;;;;;;28.33;4.37;;;;;;;12.83;38.89;101576.22;5157041;27;20505;-46
2021/04/22 09:12:27;;;;;;;16.90;4.07;;;;;;;12.66;39.47;101593.56;5157932;27;20465;-46
2021/04/22 09:14:55;;;;;;;24.33;5.43;;;;;;;12.58;39.20;101588.84;5153170;27;20504;-47
2021/04/22 09:17:24;;;;;;;13.53;3.60;;;;;;;12.49;38.64;101587.59;5158495;27;20426;-47
2021/04/22 09:19:51;;;;;;;20.37;4.17;;;;;;;12.70;38.21;101589.41;5156921;27;20449;-49
2021/04/22 09:22:18;;;;;;;29.67;9.50;;;;;;;13.05;37.11;101592.75;5140042;27;20499;-47
2021/04/22 09:24:46;;;;;;;36.73;15.10;;;;;;;13.13;36.39;101595.66;5135868;27;20427;-50
2021/04/22 09:27:14;;;;;;;23.73;7.13;;;;;;;12.67;37.52;101584.13;5139573;27;20458;-46
2021/04/22 09:29:44;;;;;;;14.23;4.03;;;;;;;12.58;38.02;101579.38;5135763;27;20831;-49
2021/04/22 09:32:13;;;;;;;18.67;4.30;;;;;;;13.67;36.98;101593.66;5136152;27;20917;-47
2021/04/22 09:34:43;;;;;;;16.17;5.10;;;;;;;13.55;37.93;101594.94;5135590;27;20454;-49
2021/04/22 09:37:09;;;;;;;17.60;4.57;;;;;;;13.12;38.74;101604.25;5136664;27;20494;-51
2021/04/22 09:39:36;;;;;;;21.10;4.30;;;;;;;13.37;39.16;101590.69;5135730;27;20435;-46
2021/04/22 09:42:08;;;;;;;12.73;4.47;;;;;;;13.05;38.74;101609.97;5136160;27;20485;-48
2021/04/22 09:44:36;;;;;;;19.40;4.27;;;;;;;13.03;37.72;101586.59;5135820;27;20451;-49
2021/04/22 09:47:08;;;;;;;22.70;4.47;;;;;;;12.64;38.74;101604.66;5136425;27;20495;-46
2021/04/22 09:49:45;;;;;;;16.33;3.40;;;;;;;13.08;38.46;101598.03;5151048;27;20772;-47
2021/04/22 09:52:14;;;;;;;20.00;4.70;;;;;;;13.30;36.92;101604.19;5156924;27;20488;-46
2021/04/22 09:54:43;;;;;;;17.10;4.50;;;;;;;12.90;37.61;101602.38;5156292;27;20451;-49
2021/04/22 09:57:20;;;;;;;18.23;4.30;;;;;;;13.37;36.78;101602.75;5138174;27;20491;-48
2021/04/22 09:59:47;;;;;;;15.00;3.40;;;;;;;12.94;37.43;101610.41;5135536;27;20450;-46
2021/04/22 10:02:14;;;;;;;19.90;4.03;;;;;;;12.93;37.85;101610.31;5136065;27;20572;-48
2021/04/22 10:04:42;;;;;;;21.23;4.60;;;;;;;13.64;37.14;101612.56;5135101;27;20550;-47
2021/04/22 10:07:22;;;;;;;14.23;4.63;;;;;;;14.27;35.39;101596.16;5136273;27;20486;-47
2021/04/22 10:09:49;;;;;;;29.77;7.43;;;;;;;13.71;36.05;101601.66;5135277;27;20476;-50
2021/04/22 10:12:22;;;;;;;12.27;4.13;;;;;;;13.48;36.58;101598.94;5136094;27;20455;-47
2021/04/22 10:14:48;;;;;;;17.30;4.80;;;;;;;13.89;36.14;101593.75;5134607;27;20434;-50
2021/04/22 10:17:16;;;;;;;17.90;4.63;;;;;;;13.71;36.44;101611.13;5135896;27;20549;-49
2021/04/22 10:19:43;;;;;;;20.83;4.60;;;;;;;13.86;35.91;101603.09;5114665;28;20907;-47
2021/04/22 10:22:10;;;;;;;13.60;3.10;;;;;;;14.53;35.50;101610.97;5115372;28;20487;-49
2021/04/22 10:24:36;;;;;;;10.37;4.30;;;;;;;14.68;35.24;101606.34;5120982;27;20818;-46
2021/04/22 10:27:04;;;;;;;12.23;3.90;;;;;;;14.58;35.52;101599.03;5135696;27;20494;-46
2021/04/22 10:29:32;;;;;;;10.10;3.97;;;;;;;14.10;37.24;101594.56;5136061;27;20482;-47
2021/04/22 10:31:59;;;;;;;13.90;4.83;;;;;;;14.71;35.35;101621.16;5135014;27;20475;-48
2021/04/22 10:34:29;;;;;;;16.73;3.43;;;;;;;13.65;36.88;101616.94;5136305;28;20486;-47
2021/04/22 10:36:58;;;;;;;24.07;6.10;;;;;;;13.64;37.33;101631.59;5134598;27;20930;-47
2021/04/22 10:39:25;;;;;;;20.10;5.47;;;;;;;13.74;37.23;101622.50;5136078;27;20452;-48
2021/04/22 10:41:53;;;;;;;15.60;3.70;;;;;;;13.49;34.75;101610.22;5134027;27;20480;-46
2021/04/22 10:44:22;;;;;;;17.10;6.50;;;;;;;13.71;36.02;101604.25;5135879;27;20875;-47
2021/04/22 10:46:50;;;;;;;14.50;3.97;;;;;;;13.66;35.38;101623.00;5134584;27;20926;-47
2021/04/22 10:49:17;;;;;;;9.67;3.67;;;;;;;13.23;36.53;101617.72;5148926;27;20455;-48
2021/04/22 10:51:44;;;;;;;18.50;6.13;;;;;;;13.54;36.84;101613.00;5154958;27;20471;-46
2021/04/22 10:54:10;;;;;;;15.33;3.33;;;;;;;13.34;36.12;101608.69;5156612;27;20477;-51
2021/04/22 10:56:37;;;;;;;18.23;3.50;;;;;;;13.88;36.23;101610.13;5155412;27;20463;-48
2021/04/22 10:59:19;;;;;;;17.87;2.80;;;;;;;13.49;35.72;101605.03;5156302;27;20459;-47
2021/04/22 11:01:45;;;;;;;12.90;3.63;;;;;;;13.60;36.65;101608.09;5154941;27;20759;-48
2021/04/22 11:04:13;;;;;;;18.63;7.20;;;;;;;14.05;35.52;101609.94;5155521;27;20547;-45
2021/04/22 11:06:41;;;;;;;14.67;3.00;;;;;;;13.95;35.68;101616.44;5134844;27;20780;-47
2021/04/22 11:09:13;;;;;;;10.87;2.90;;;;;;;14.24;35.98;101605.50;5138803;27;20458;-48
2021/04/22 11:11:52;;;;;;;11.10;2.27;;;;;;;13.69;36.65;101625.75;5139660;27;20941;-48
2021/04/22 11:14:19;;;;;;;21.33;3.10;;;;;;;13.40;36.46;101607.19;5118374;28;20545;-49
2021/04/22 11:16:50;;;;;;;12.17;3.83;;;;;;;13.64;36.58;101608.28;5116646;28;20482;-47
2021/04/22 11:19:19;;;;;;;16.27;3.47;;;;;;;13.77;37.13;101621.75;5124274;27;20559;-47